sensor_id;sensor_type;location;lat;lon;timestamp;P1;durP1;ratioP1;P2;durP2;ratioP2
39434;SDS011;30098;51.880;-0.518;2022-12-22T00:00:13;2.15;;;1.60;;
39434;SDS011;30098;51.880;-0.518;2022-12-22T00:02:57;3.20;;;1.70;;
39434;SDS011;30098;51.880;-0.518;2022-12-22T00:05:41;2.40;;;1.70;;
39434;SDS011;30098;51.880;-0.518;2022-12-22T00:08:25;2.40;;;1.60;;
39434;SDS011;30098;51.880;-0.518;2022-12-22T00:11:10;1.98;;;1.40;;
39434;SDS011;30098;51.880;-0.518;2022-12-22T00:13:55;2.58;;;1.70;;
39434;SDS011;30098;51.880;-0.518;2022-12-22T00:16:39;1.98;;;1.70;;
39434;SDS011;30098;51.880;-0.518;2022-12-22T00:19:22;2.38;;;1.60;;
39434;SDS011;30098;51.880;-0.518;2022-12-22T00:22:14;1.90;;;1.70;;
39434;SDS011;30098;51.880;-0.518;2022-12-22T00:25:11;1.80;;;1.30;;
39434;SDS011;30098;51.880;-0.518;2022-12-22T00:27:56;2.00;;;1.67;;
39434;SDS011;30098;51.880;-0.518;2022-12-22T00:30:40;2.53;;;1.80;;
39434;SDS011;30098;51.880;-0.518;2022-12-22T00:33:25;2.00;;;1.55;;
39434;SDS011;30098;51.880;-0.518;2022-12-22T00:36:09;2.53;;;1.60;;
39434;SDS011;30098;51.880;-0.518;2022-12-22T00:38:55;1.95;;;1.55;;
39434;SDS011;30098;51.880;-0.518;2022-12-22T00:41:39;2.58;;;1.70;;
39434;SDS011;30098;51.880;-0.518;2022-12-22T00:44:23;2.25;;;1.58;;
39434;SDS011;30098;51.880;-0.518;2022-12-22T00:47:13;2.25;;;1.67;;
39434;SDS011;30098;51.880;-0.518;2022-12-22T00:50:07;2.00;;;1.60;;
39434;SDS011;30098;51.880;-0.518;2022-12-22T00:52:52;2.30;;;1.75;;
39434;SDS011;30098;51.880;-0.518;2022-12-22T00:55:36;2.38;;;1.60;;
39434;SDS011;30098;51.880;-0.518;2022-12-22T00:58:20;2.10;;;1.58;;
39434;SDS011;30098;51.880;-0.518;2022-12-22T01:01:05;2.10;;;1.60;;
39434;SDS011;30098;51.880;-0.518;2022-12-22T01:03:49;2.85;;;1.80;;
39434;SDS011;30098;51.880;-0.518;2022-12-22T01:06:34;2.30;;;1.73;;
39434;SDS011;30098;51.880;-0.518;2022-12-22T01:09:19;2.03;;;1.65;;
39434;SDS011;30098;51.880;-0.518;2022-12-22T01:12:08;2.85;;;1.70;;
39434;SDS011;30098;51.880;-0.518;2022-12-22T01:14:56;2.10;;;1.40;;
39434;SDS011;30098;51.880;-0.518;2022-12-22T01:17:40;1.88;;;1.55;;
39434;SDS011;30098;51.880;-0.518;2022-12-22T01:20:24;1.90;;;1.48;;
39434;SDS011;30098;51.880;-0.518;2022-12-22T01:23:09;1.95;;;1.58;;
39434;SDS011;30098;51.880;-0.518;2022-12-22T01:25:53;2.40;;;1.77;;
39434;SDS011;30098;51.880;-0.518;2022-12-22T01:28:37;1.90;;;1.50;;
39434;SDS011;30098;51.880;-0.518;2022-12-22T01:31:29;2.17;;;1.67;;
39434;SDS011;30098;51.880;-0.518;2022-12-22T01:34:15;2.53;;;1.65;;
39434;SDS011;30098;51.880;-0.518;2022-12-22T01:36:59;2.03;;;1.48;;
39434;SDS011;30098;51.880;-0.518;2022-12-22T01:39:43;2.03;;;1.45;;
39434;SDS011;30098;51.880;-0.518;2022-12-22T01:42:28;1.80;;;1.42;;
39434;SDS011;30098;51.880;-0.518;2022-12-22T01:45:19;2.10;;;1.40;;
39434;SDS011;30098;51.880;-0.518;2022-12-22T01:48:03;1.73;;;1.55;;
39434;SDS011;30098;51.880;-0.518;2022-12-22T01:50:47;2.08;;;1.50;;
39434;SDS011;30098;51.880;-0.518;2022-12-22T01:53:31;1.60;;;1.33;;
39434;SDS011;30098;51.880;-0.518;2022-12-22T01:56:17;1.50;;;1.15;;
39434;SDS011;30098;51.880;-0.518;2022-12-22T01:59:02;2.10;;;1.60;;
39434;SDS011;30098;51.880;-0.518;2022-12-22T02:01:47;2.03;;;1.50;;
39434;SDS011;30098;51.880;-0.518;2022-12-22T02:04:33;1.73;;;1.42;;
39434;SDS011;30098;51.880;-0.518;2022-12-22T02:10:47;2.15;;;1.42;;
39434;SDS011;30098;51.880;-0.518;2022-12-22T02:25:51;1.70;;;1.35;;
39434;SDS011;30098;51.880;-0.518;2022-12-22T02:28:41;2.03;;;1.33;;
39434;SDS011;30098;51.880;-0.518;2022-12-22T02:31:32;1.85;;;1.40;;
39434;SDS011;30098;51.880;-0.518;2022-12-22T02:34:18;1.30;;;1.20;;
39434;SDS011;30098;51.880;-0.518;2022-12-22T02:37:48;1.85;;;1.30;;
39434;SDS011;30098;51.880;-0.518;2022-12-22T02:40:35;1.85;;;1.42;;
39434;SDS011;30098;51.880;-0.518;2022-12-22T02:46:20;1.30;;;1.20;;
39434;SDS011;30098;51.880;-0.518;2022-12-22T02:52:24;1.90;;;1.42;;
39434;SDS011;30098;51.880;-0.518;2022-12-22T02:55:16;1.80;;;1.30;;
39434;SDS011;30098;51.880;-0.518;2022-12-22T02:58:01;1.67;;;1.20;;
39434;SDS011;30098;51.880;-0.518;2022-12-22T03:00:45;1.10;;;1.00;;
39434;SDS011;30098;51.880;-0.518;2022-12-22T03:03:30;1.40;;;1.15;;
39434;SDS011;30098;51.880;-0.518;2022-12-22T03:06:14;1.58;;;1.20;;
39434;SDS011;30098;51.880;-0.518;2022-12-22T03:08:59;2.03;;;1.20;;
39434;SDS011;30098;51.880;-0.518;2022-12-22T03:11:43;1.65;;;1.27;;
39434;SDS011;30098;51.880;-0.518;2022-12-22T03:14:26;1.70;;;1.38;;
39434;SDS011;30098;51.880;-0.518;2022-12-22T03:17:10;1.52;;;1.23;;
39434;SDS011;30098;51.880;-0.518;2022-12-22T03:19:55;1.65;;;1.30;;
39434;SDS011;30098;51.880;-0.518;2022-12-22T03:22:39;1.20;;;1.10;;
39434;SDS011;30098;51.880;-0.518;2022-12-22T03:25:23;1.35;;;1.10;;
39434;SDS011;30098;51.880;-0.518;2022-12-22T03:28:07;1.50;;;1.30;;
39434;SDS011;30098;51.880;-0.518;2022-12-22T03:30:33;1.70;;;1.30;;
39434;SDS011;30098;51.880;-0.518;2022-12-22T03:32:59;1.30;;;1.20;;
39434;SDS011;30098;51.880;-0.518;2022-12-22T03:35:25;1.60;;;1.20;;
39434;SDS011;30098;51.880;-0.518;2022-12-22T03:37:52;1.40;;;1.00;;
39434;SDS011;30098;51.880;-0.518;2022-12-22T03:40:17;1.73;;;1.10;;
39434;SDS011;30098;51.880;-0.518;2022-12-22T03:42:43;1.10;;;1.00;;
39434;SDS011;30098;51.880;-0.518;2022-12-22T03:45:27;1.88;;;1.20;;
39434;SDS011;30098;51.880;-0.518;2022-12-22T03:48:11;1.63;;;1.10;;
39434;SDS011;30098;51.880;-0.518;2022-12-22T03:50:36;1.52;;;1.15;;
39434;SDS011;30098;51.880;-0.518;2022-12-22T03:53:02;1.50;;;1.17;;
39434;SDS011;30098;51.880;-0.518;2022-12-22T03:55:27;1.58;;;1.10;;
39434;SDS011;30098;51.880;-0.518;2022-12-22T03:57:53;1.15;;;1.05;;
39434;SDS011;30098;51.880;-0.518;2022-12-22T04:00:18;1.48;;;1.10;;
39434;SDS011;30098;51.880;-0.518;2022-12-22T04:02:44;1.30;;;1.13;;
39434;SDS011;30098;51.880;-0.518;2022-12-22T04:05:09;1.35;;;1.10;;
39434;SDS011;30098;51.880;-0.518;2022-12-22T04:07:35;1.77;;;1.17;;
39434;SDS011;30098;51.880;-0.518;2022-12-22T04:10:00;1.70;;;1.10;;
39434;SDS011;30098;51.880;-0.518;2022-12-22T04:12:45;1.40;;;1.02;;
39434;SDS011;30098;51.880;-0.518;2022-12-22T04:15:23;1.77;;;1.48;;
39434;SDS011;30098;51.880;-0.518;2022-12-22T04:17:53;1.38;;;0.90;;
39434;SDS011;30098;51.880;-0.518;2022-12-22T04:20:18;1.15;;;1.00;;
39434;SDS011;30098;51.880;-0.518;2022-12-22T04:22:46;1.23;;;1.10;;
39434;SDS011;30098;51.880;-0.518;2022-12-22T04:25:12;1.27;;;0.98;;
39434;SDS011;30098;51.880;-0.518;2022-12-22T04:27:38;1.25;;;1.00;;
39434;SDS011;30098;51.880;-0.518;2022-12-22T04:30:04;1.48;;;1.00;;
39434;SDS011;30098;51.880;-0.518;2022-12-22T04:32:31;1.10;;;1.00;;
39434;SDS011;30098;51.880;-0.518;2022-12-22T04:34:56;1.20;;;0.90;;
39434;SDS011;30098;51.880;-0.518;2022-12-22T04:37:21;1.17;;;1.02;;
39434;SDS011;30098;51.880;-0.518;2022-12-22T04:39:47;1.10;;;1.00;;
39434;SDS011;30098;51.880;-0.518;2022-12-22T04:42:12;1.10;;;0.82;;
39434;SDS011;30098;51.880;-0.518;2022-12-22T04:44:38;1.30;;;1.10;;
39434;SDS011;30098;51.880;-0.518;2022-12-22T04:47:03;1.35;;;0.95;;
39434;SDS011;30098;51.880;-0.518;2022-12-22T04:49:29;1.38;;;1.10;;
39434;SDS011;30098;51.880;-0.518;2022-12-22T04:51:54;1.42;;;1.00;;
39434;SDS011;30098;51.880;-0.518;2022-12-22T04:54:20;1.33;;;1.08;;
39434;SDS011;30098;51.880;-0.518;2022-12-22T04:56:45;1.30;;;1.05;;
39434;SDS011;30098;51.880;-0.518;2022-12-22T04:59:11;1.10;;;0.90;;
39434;SDS011;30098;51.880;-0.518;2022-12-22T05:01:36;1.10;;;0.93;;
39434;SDS011;30098;51.880;-0.518;2022-12-22T05:04:01;1.20;;;1.10;;
39434;SDS011;30098;51.880;-0.518;2022-12-22T05:06:27;1.23;;;0.98;;
39434;SDS011;30098;51.880;-0.518;2022-12-22T05:08:52;1.20;;;1.00;;
39434;SDS011;30098;51.880;-0.518;2022-12-22T05:11:18;1.40;;;1.20;;
39434;SDS011;30098;51.880;-0.518;2022-12-22T05:13:43;1.33;;;1.00;;
39434;SDS011;30098;51.880;-0.518;2022-12-22T05:16:10;1.15;;;1.00;;
39434;SDS011;30098;51.880;-0.518;2022-12-22T05:18:37;1.10;;;1.00;;
39434;SDS011;30098;51.880;-0.518;2022-12-22T05:21:11;1.25;;;1.02;;
39434;SDS011;30098;51.880;-0.518;2022-12-22T05:23:38;1.08;;;0.90;;
39434;SDS011;30098;51.880;-0.518;2022-12-22T05:26:04;1.20;;;1.10;;
39434;SDS011;30098;51.880;-0.518;2022-12-22T05:28:30;1.38;;;0.95;;
39434;SDS011;30098;51.880;-0.518;2022-12-22T05:30:56;1.40;;;1.08;;
39434;SDS011;30098;51.880;-0.518;2022-12-22T05:33:22;1.08;;;0.98;;
39434;SDS011;30098;51.880;-0.518;2022-12-22T05:35:47;1.63;;;1.02;;
39434;SDS011;30098;51.880;-0.518;2022-12-22T05:38:13;1.40;;;1.00;;
39434;SDS011;30098;51.880;-0.518;2022-12-22T05:40:38;1.10;;;0.90;;
39434;SDS011;30098;51.880;-0.518;2022-12-22T05:43:03;1.40;;;1.10;;
39434;SDS011;30098;51.880;-0.518;2022-12-22T05:45:29;1.25;;;1.10;;
39434;SDS011;30098;51.880;-0.518;2022-12-22T05:47:55;1.00;;;0.90;;
39434;SDS011;30098;51.880;-0.518;2022-12-22T05:50:22;0.93;;;0.82;;
39434;SDS011;30098;51.880;-0.518;2022-12-22T05:52:48;1.25;;;1.00;;
39434;SDS011;30098;51.880;-0.518;2022-12-22T05:55:14;1.25;;;1.08;;
39434;SDS011;30098;51.880;-0.518;2022-12-22T05:57:40;1.10;;;0.90;;
39434;SDS011;30098;51.880;-0.518;2022-12-22T06:00:07;1.33;;;0.98;;
39434;SDS011;30098;51.880;-0.518;2022-12-22T06:02:36;1.58;;;1.10;;
39434;SDS011;30098;51.880;-0.518;2022-12-22T06:05:02;1.23;;;1.00;;
39434;SDS011;30098;51.880;-0.518;2022-12-22T06:07:27;1.00;;;0.90;;
39434;SDS011;30098;51.880;-0.518;2022-12-22T06:09:53;1.10;;;0.90;;
39434;SDS011;30098;51.880;-0.518;2022-12-22T06:12:18;1.10;;;1.00;;
39434;SDS011;30098;51.880;-0.518;2022-12-22T06:14:44;1.20;;;0.90;;
39434;SDS011;30098;51.880;-0.518;2022-12-22T06:17:09;1.25;;;0.90;;
39434;SDS011;30098;51.880;-0.518;2022-12-22T06:19:35;1.13;;;0.82;;
39434;SDS011;30098;51.880;-0.518;2022-12-22T06:22:00;0.93;;;0.80;;
39434;SDS011;30098;51.880;-0.518;2022-12-22T06:24:26;0.95;;;0.80;;
39434;SDS011;30098;51.880;-0.518;2022-12-22T06:26:51;1.05;;;0.80;;
39434;SDS011;30098;51.880;-0.518;2022-12-22T06:29:16;1.15;;;0.82;;
39434;SDS011;30098;51.880;-0.518;2022-12-22T06:31:42;1.13;;;0.80;;
39434;SDS011;30098;51.880;-0.518;2022-12-22T06:34:08;1.10;;;0.90;;
39434;SDS011;30098;51.880;-0.518;2022-12-22T06:36:34;0.90;;;0.80;;
39434;SDS011;30098;51.880;-0.518;2022-12-22T06:39:00;0.75;;;0.75;;
39434;SDS011;30098;51.880;-0.518;2022-12-22T06:41:26;0.90;;;0.80;;
39434;SDS011;30098;51.880;-0.518;2022-12-22T06:44:10;0.90;;;0.80;;
39434;SDS011;30098;51.880;-0.518;2022-12-22T06:46:35;1.05;;;0.70;;
39434;SDS011;30098;51.880;-0.518;2022-12-22T06:49:01;1.20;;;0.95;;
39434;SDS011;30098;51.880;-0.518;2022-12-22T06:51:26;0.88;;;0.82;;
39434;SDS011;30098;51.880;-0.518;2022-12-22T06:53:52;0.65;;;0.65;;
39434;SDS011;30098;51.880;-0.518;2022-12-22T06:56:17;1.00;;;0.80;;
39434;SDS011;30098;51.880;-0.518;2022-12-22T06:58:43;1.00;;;0.70;;
39434;SDS011;30098;51.880;-0.518;2022-12-22T07:01:08;1.00;;;0.80;;
39434;SDS011;30098;51.880;-0.518;2022-12-22T07:03:33;1.00;;;0.90;;
39434;SDS011;30098;51.880;-0.518;2022-12-22T07:05:59;1.00;;;0.80;;
39434;SDS011;30098;51.880;-0.518;2022-12-22T07:08:24;1.02;;;0.80;;
39434;SDS011;30098;51.880;-0.518;2022-12-22T07:10:50;0.98;;;0.73;;
39434;SDS011;30098;51.880;-0.518;2022-12-22T07:13:25;0.82;;;0.68;;
39434;SDS011;30098;51.880;-0.518;2022-12-22T07:15:53;1.17;;;0.93;;
39434;SDS011;30098;51.880;-0.518;2022-12-22T07:18:19;1.45;;;0.70;;
39434;SDS011;30098;51.880;-0.518;2022-12-22T07:20:45;0.95;;;0.73;;
39434;SDS011;30098;51.880;-0.518;2022-12-22T07:23:10;0.75;;;0.60;;
39434;SDS011;30098;51.880;-0.518;2022-12-22T07:25:36;1.15;;;0.80;;
39434;SDS011;30098;51.880;-0.518;2022-12-22T07:28:02;1.00;;;0.75;;
39434;SDS011;30098;51.880;-0.518;2022-12-22T07:30:27;1.05;;;0.80;;
39434;SDS011;30098;51.880;-0.518;2022-12-22T07:32:53;1.10;;;0.90;;
39434;SDS011;30098;51.880;-0.518;2022-12-22T07:35:18;0.90;;;0.70;;
39434;SDS011;30098;51.880;-0.518;2022-12-22T07:37:43;0.70;;;0.70;;
39434;SDS011;30098;51.880;-0.518;2022-12-22T07:40:12;0.82;;;0.70;;
39434;SDS011;30098;51.880;-0.518;2022-12-22T07:42:37;0.65;;;0.60;;
39434;SDS011;30098;51.880;-0.518;2022-12-22T07:45:08;0.90;;;0.70;;
39434;SDS011;30098;51.880;-0.518;2022-12-22T07:47:34;0.70;;;0.50;;
39434;SDS011;30098;51.880;-0.518;2022-12-22T07:50:00;0.88;;;0.60;;
39434;SDS011;30098;51.880;-0.518;2022-12-22T07:52:44;0.70;;;0.57;;
39434;SDS011;30098;51.880;-0.518;2022-12-22T07:55:09;0.43;;;0.40;;
39434;SDS011;30098;51.880;-0.518;2022-12-22T07:57:34;0.60;;;0.55;;
39434;SDS011;30098;51.880;-0.518;2022-12-22T08:00:00;0.70;;;0.60;;
39434;SDS011;30098;51.880;-0.518;2022-12-22T08:02:26;0.60;;;0.57;;
39434;SDS011;30098;51.880;-0.518;2022-12-22T08:04:52;0.60;;;0.50;;
39434;SDS011;30098;51.880;-0.518;2022-12-22T08:07:17;0.95;;;0.77;;
39434;SDS011;30098;51.880;-0.518;2022-12-22T08:09:42;0.73;;;0.65;;
39434;SDS011;30098;51.880;-0.518;2022-12-22T08:12:08;0.60;;;0.50;;
39434;SDS011;30098;51.880;-0.518;2022-12-22T08:14:33;0.70;;;0.57;;
39434;SDS011;30098;51.880;-0.518;2022-12-22T08:16:59;0.57;;;0.47;;
39434;SDS011;30098;51.880;-0.518;2022-12-22T08:19:24;0.75;;;0.60;;
39434;SDS011;30098;51.880;-0.518;2022-12-22T08:21:49;0.60;;;0.60;;
39434;SDS011;30098;51.880;-0.518;2022-12-22T08:24:15;0.73;;;0.60;;
39434;SDS011;30098;51.880;-0.518;2022-12-22T08:26:41;0.90;;;0.70;;
39434;SDS011;30098;51.880;-0.518;2022-12-22T08:29:11;1.10;;;0.70;;
39434;SDS011;30098;51.880;-0.518;2022-12-22T08:31:40;0.80;;;0.63;;
39434;SDS011;30098;51.880;-0.518;2022-12-22T08:34:07;0.88;;;0.80;;
39434;SDS011;30098;51.880;-0.518;2022-12-22T08:36:35;1.10;;;0.80;;
39434;SDS011;30098;51.880;-0.518;2022-12-22T08:39:04;1.53;;;0.73;;
39434;SDS011;30098;51.880;-0.518;2022-12-22T08:41:30;1.00;;;0.70;;
39434;SDS011;30098;51.880;-0.518;2022-12-22T08:44:16;0.85;;;0.70;;
39434;SDS011;30098;51.880;-0.518;2022-12-22T08:46:47;1.20;;;0.80;;
39434;SDS011;30098;51.880;-0.518;2022-12-22T08:49:13;1.38;;;0.85;;
39434;SDS011;30098;51.880;-0.518;2022-12-22T08:51:39;3.65;;;0.80;;
39434;SDS011;30098;51.880;-0.518;2022-12-22T08:54:04;2.10;;;1.00;;
39434;SDS011;30098;51.880;-0.518;2022-12-22T08:56:30;2.22;;;0.90;;
39434;SDS011;30098;51.880;-0.518;2022-12-22T08:58:55;1.65;;;1.00;;
39434;SDS011;30098;51.880;-0.518;2022-12-22T09:01:21;1.70;;;0.90;;
39434;SDS011;30098;51.880;-0.518;2022-12-22T09:03:48;1.95;;;0.80;;
39434;SDS011;30098;51.880;-0.518;2022-12-22T09:06:18;1.17;;;0.85;;
39434;SDS011;30098;51.880;-0.518;2022-12-22T09:08:45;2.15;;;0.80;;
39434;SDS011;30098;51.880;-0.518;2022-12-22T09:11:12;1.55;;;1.08;;
39434;SDS011;30098;51.880;-0.518;2022-12-22T09:13:37;1.70;;;1.08;;
39434;SDS011;30098;51.880;-0.518;2022-12-22T09:16:04;3.03;;;1.05;;
39434;SDS011;30098;51.880;-0.518;2022-12-22T09:18:32;1.98;;;1.05;;
39434;SDS011;30098;51.880;-0.518;2022-12-22T09:20:57;2.50;;;1.00;;
39434;SDS011;30098;51.880;-0.518;2022-12-22T09:23:23;2.55;;;0.93;;
39434;SDS011;30098;51.880;-0.518;2022-12-22T09:25:49;2.40;;;1.10;;
39434;SDS011;30098;51.880;-0.518;2022-12-22T09:28:15;1.83;;;1.08;;
39434;SDS011;30098;51.880;-0.518;2022-12-22T09:30:40;2.20;;;1.40;;
39434;SDS011;30098;51.880;-0.518;2022-12-22T09:33:06;3.15;;;1.50;;
39434;SDS011;30098;51.880;-0.518;2022-12-22T09:35:31;3.30;;;1.42;;
39434;SDS011;30098;51.880;-0.518;2022-12-22T09:37:57;3.40;;;1.45;;
39434;SDS011;30098;51.880;-0.518;2022-12-22T09:40:22;3.45;;;1.50;;
39434;SDS011;30098;51.880;-0.518;2022-12-22T09:42:48;3.50;;;1.50;;
39434;SDS011;30098;51.880;-0.518;2022-12-22T09:45:15;4.50;;;1.50;;
39434;SDS011;30098;51.880;-0.518;2022-12-22T09:50:17;8.00;;;1.85;;
39434;SDS011;30098;51.880;-0.518;2022-12-22T09:52:48;4.03;;;1.60;;
39434;SDS011;30098;51.880;-0.518;2022-12-22T09:57:49;4.45;;;1.77;;
39434;SDS011;30098;51.880;-0.518;2022-12-22T10:00:19;5.05;;;2.20;;
39434;SDS011;30098;51.880;-0.518;2022-12-22T10:05:40;5.73;;;1.90;;
39434;SDS011;30098;51.880;-0.518;2022-12-22T10:08:14;5.90;;;2.08;;
39434;SDS011;30098;51.880;-0.518;2022-12-22T10:10:52;4.50;;;1.90;;
39434;SDS011;30098;51.880;-0.518;2022-12-22T10:13:19;7.75;;;2.25;;
39434;SDS011;30098;51.880;-0.518;2022-12-22T10:15:44;5.82;;;2.33;;
39434;SDS011;30098;51.880;-0.518;2022-12-22T10:18:15;6.35;;;2.30;;
39434;SDS011;30098;51.880;-0.518;2022-12-22T10:21:25;6.28;;;2.45;;
39434;SDS011;30098;51.880;-0.518;2022-12-22T10:26:09;8.73;;;2.70;;
39434;SDS011;30098;51.880;-0.518;2022-12-22T10:28:48;7.25;;;2.30;;
39434;SDS011;30098;51.880;-0.518;2022-12-22T10:31:19;9.90;;;2.95;;
39434;SDS011;30098;51.880;-0.518;2022-12-22T10:33:47;11.45;;;3.00;;
39434;SDS011;30098;51.880;-0.518;2022-12-22T10:36:29;8.10;;;3.08;;
39434;SDS011;30098;51.880;-0.518;2022-12-22T10:38:57;7.90;;;2.80;;
39434;SDS011;30098;51.880;-0.518;2022-12-22T10:41:24;5.43;;;2.83;;
39434;SDS011;30098;51.880;-0.518;2022-12-22T10:43:56;10.52;;;3.00;;
39434;SDS011;30098;51.880;-0.518;2022-12-22T10:46:35;6.35;;;2.50;;
39434;SDS011;30098;51.880;-0.518;2022-12-22T10:49:15;9.98;;;3.10;;
39434;SDS011;30098;51.880;-0.518;2022-12-22T10:51:48;8.90;;;3.33;;
39434;SDS011;30098;51.880;-0.518;2022-12-22T10:54:32;9.75;;;3.15;;
39434;SDS011;30098;51.880;-0.518;2022-12-22T10:57:19;8.23;;;3.28;;
39434;SDS011;30098;51.880;-0.518;2022-12-22T10:59:51;11.03;;;3.50;;
39434;SDS011;30098;51.880;-0.518;2022-12-22T11:04:46;7.07;;;2.95;;
39434;SDS011;30098;51.880;-0.518;2022-12-22T11:07:12;12.13;;;3.53;;
39434;SDS011;30098;51.880;-0.518;2022-12-22T11:09:38;8.32;;;3.40;;
39434;SDS011;30098;51.880;-0.518;2022-12-22T11:17:45;10.68;;;3.38;;
39434;SDS011;30098;51.880;-0.518;2022-12-22T11:23:36;8.27;;;3.53;;
39434;SDS011;30098;51.880;-0.518;2022-12-22T11:37:10;9.23;;;3.92;;
39434;SDS011;30098;51.880;-0.518;2022-12-22T11:40:36;13.98;;;4.03;;
39434;SDS011;30098;51.880;-0.518;2022-12-22T11:50:55;12.68;;;3.70;;
39434;SDS011;30098;51.880;-0.518;2022-12-22T11:56:39;9.00;;;4.10;;
39434;SDS011;30098;51.880;-0.518;2022-12-22T12:01:59;11.70;;;4.53;;
39434;SDS011;30098;51.880;-0.518;2022-12-22T12:10:06;10.27;;;4.60;;
39434;SDS011;30098;51.880;-0.518;2022-12-22T12:15:52;10.52;;;4.85;;
39434;SDS011;30098;51.880;-0.518;2022-12-22T12:18:35;16.20;;;5.20;;
39434;SDS011;30098;51.880;-0.518;2022-12-22T12:30:02;14.57;;;5.13;;
39434;SDS011;30098;51.880;-0.518;2022-12-22T12:32:40;15.45;;;4.72;;
39434;SDS011;30098;51.880;-0.518;2022-12-22T12:37:49;15.95;;;5.30;;
39434;SDS011;30098;51.880;-0.518;2022-12-22T12:40:34;11.18;;;4.80;;
39434;SDS011;30098;51.880;-0.518;2022-12-22T12:43:17;18.20;;;5.30;;
39434;SDS011;30098;51.880;-0.518;2022-12-22T12:45:44;13.32;;;5.57;;
39434;SDS011;30098;51.880;-0.518;2022-12-22T12:50:49;15.45;;;5.28;;
39434;SDS011;30098;51.880;-0.518;2022-12-22T12:53:15;16.42;;;5.20;;
39434;SDS011;30098;51.880;-0.518;2022-12-22T12:58:45;16.70;;;5.32;;
39434;SDS011;30098;51.880;-0.518;2022-12-22T13:00:59;62.97;;;8.90;;
39434;SDS011;30098;51.880;-0.518;2022-12-22T13:03:36;110.85;;;13.60;;
39434;SDS011;30098;51.880;-0.518;2022-12-22T13:06:05;61.28;;;10.60;;
39434;SDS011;30098;51.880;-0.518;2022-12-22T13:23:37;42.42;;;8.70;;
39434;SDS011;30098;51.880;-0.518;2022-12-22T13:26:11;44.10;;;8.35;;
39434;SDS011;30098;51.880;-0.518;2022-12-22T13:28:43;42.53;;;8.07;;
39434;SDS011;30098;51.880;-0.518;2022-12-22T13:33:42;34.63;;;7.70;;
39434;SDS011;30098;51.880;-0.518;2022-12-22T13:36:14;38.83;;;8.27;;
39434;SDS011;30098;51.880;-0.518;2022-12-22T13:38:43;34.65;;;7.82;;
39434;SDS011;30098;51.880;-0.518;2022-12-22T13:41:13;39.85;;;7.85;;
39434;SDS011;30098;51.880;-0.518;2022-12-22T13:43:42;32.47;;;8.15;;
39434;SDS011;30098;51.880;-0.518;2022-12-22T13:46:11;32.58;;;7.88;;
39434;SDS011;30098;51.880;-0.518;2022-12-22T13:48:38;28.42;;;7.75;;
39434;SDS011;30098;51.880;-0.518;2022-12-22T13:51:10;37.22;;;8.35;;
39434;SDS011;30098;51.880;-0.518;2022-12-22T13:53:48;26.90;;;7.07;;
39434;SDS011;30098;51.880;-0.518;2022-12-22T13:56:18;35.30;;;8.10;;
39434;SDS011;30098;51.880;-0.518;2022-12-22T13:58:49;37.60;;;7.57;;
39434;SDS011;30098;51.880;-0.518;2022-12-22T14:01:18;34.85;;;8.15;;
39434;SDS011;30098;51.880;-0.518;2022-12-22T14:03:47;29.50;;;7.70;;
39434;SDS011;30098;51.880;-0.518;2022-12-22T14:06:20;35.70;;;8.55;;
39434;SDS011;30098;51.880;-0.518;2022-12-22T14:08:51;37.20;;;7.90;;
39434;SDS011;30098;51.880;-0.518;2022-12-22T14:11:16;27.30;;;6.00;;
39434;SDS011;30098;51.880;-0.518;2022-12-22T14:13:42;18.15;;;5.20;;
39434;SDS011;30098;51.880;-0.518;2022-12-22T14:16:10;19.77;;;4.97;;
39434;SDS011;30098;51.880;-0.518;2022-12-22T14:18:37;13.90;;;4.10;;
39434;SDS011;30098;51.880;-0.518;2022-12-22T14:21:03;10.40;;;3.45;;
39434;SDS011;30098;51.880;-0.518;2022-12-22T14:23:34;11.73;;;3.92;;
39434;SDS011;30098;51.880;-0.518;2022-12-22T14:26:04;11.25;;;3.35;;
39434;SDS011;30098;51.880;-0.518;2022-12-22T14:31:07;12.40;;;3.47;;
39434;SDS011;30098;51.880;-0.518;2022-12-22T14:33:36;10.98;;;3.00;;
39434;SDS011;30098;51.880;-0.518;2022-12-22T14:38:42;12.32;;;3.22;;
39434;SDS011;30098;51.880;-0.518;2022-12-22T14:41:21;9.45;;;2.70;;
39434;SDS011;30098;51.880;-0.518;2022-12-22T14:44:10;10.45;;;2.88;;
39434;SDS011;30098;51.880;-0.518;2022-12-22T14:49:42;12.55;;;2.95;;
39434;SDS011;30098;51.880;-0.518;2022-12-22T14:52:34;11.18;;;3.10;;
39434;SDS011;30098;51.880;-0.518;2022-12-22T14:55:04;10.90;;;3.25;;
39434;SDS011;30098;51.880;-0.518;2022-12-22T14:57:42;10.10;;;2.90;;
39434;SDS011;30098;51.880;-0.518;2022-12-22T15:00:24;9.25;;;3.08;;
39434;SDS011;30098;51.880;-0.518;2022-12-22T15:02:53;9.00;;;2.85;;
39434;SDS011;30098;51.880;-0.518;2022-12-22T15:07:57;11.38;;;3.60;;
39434;SDS011;30098;51.880;-0.518;2022-12-22T15:10:24;11.20;;;3.92;;
39434;SDS011;30098;51.880;-0.518;2022-12-22T15:12:56;14.77;;;4.30;;
39434;SDS011;30098;51.880;-0.518;2022-12-22T15:15:23;13.90;;;4.05;;
39434;SDS011;30098;51.880;-0.518;2022-12-22T15:17:49;16.67;;;4.20;;
39434;SDS011;30098;51.880;-0.518;2022-12-22T15:20:21;17.50;;;4.95;;
39434;SDS011;30098;51.880;-0.518;2022-12-22T15:22:48;17.70;;;4.43;;
39434;SDS011;30098;51.880;-0.518;2022-12-22T15:25:14;12.10;;;4.15;;
39434;SDS011;30098;51.880;-0.518;2022-12-22T15:27:45;12.45;;;4.32;;
39434;SDS011;30098;51.880;-0.518;2022-12-22T15:30:11;11.68;;;3.83;;
39434;SDS011;30098;51.880;-0.518;2022-12-22T15:32:40;11.82;;;4.00;;
39434;SDS011;30098;51.880;-0.518;2022-12-22T15:35:26;11.27;;;3.90;;
39434;SDS011;30098;51.880;-0.518;2022-12-22T15:37:54;13.75;;;4.28;;
39434;SDS011;30098;51.880;-0.518;2022-12-22T15:40:20;13.40;;;4.22;;
39434;SDS011;30098;51.880;-0.518;2022-12-22T15:42:46;12.20;;;4.32;;
39434;SDS011;30098;51.880;-0.518;2022-12-22T15:45:13;12.57;;;4.40;;
39434;SDS011;30098;51.880;-0.518;2022-12-22T15:47:40;14.57;;;4.75;;
39434;SDS011;30098;51.880;-0.518;2022-12-22T15:50:09;11.10;;;4.10;;
39434;SDS011;30098;51.880;-0.518;2022-12-22T15:52:39;14.18;;;4.82;;
39434;SDS011;30098;51.880;-0.518;2022-12-22T15:55:12;15.43;;;4.78;;
39434;SDS011;30098;51.880;-0.518;2022-12-22T15:57:38;16.05;;;4.22;;
39434;SDS011;30098;51.880;-0.518;2022-12-22T16:00:04;10.38;;;3.72;;
39434;SDS011;30098;51.880;-0.518;2022-12-22T16:02:30;13.63;;;4.13;;
39434;SDS011;30098;51.880;-0.518;2022-12-22T16:04:56;12.73;;;3.88;;
39434;SDS011;30098;51.880;-0.518;2022-12-22T16:07:21;16.73;;;4.60;;
39434;SDS011;30098;51.880;-0.518;2022-12-22T16:09:47;14.98;;;4.38;;
39434;SDS011;30098;51.880;-0.518;2022-12-22T16:12:16;14.80;;;3.97;;
39434;SDS011;30098;51.880;-0.518;2022-12-22T16:14:43;11.88;;;4.47;;
39434;SDS011;30098;51.880;-0.518;2022-12-22T16:17:18;14.48;;;4.45;;
39434;SDS011;30098;51.880;-0.518;2022-12-22T16:19:45;13.18;;;3.63;;
39434;SDS011;30098;51.880;-0.518;2022-12-22T16:22:14;11.35;;;3.55;;
39434;SDS011;30098;51.880;-0.518;2022-12-22T16:24:44;9.15;;;3.28;;
39434;SDS011;30098;51.880;-0.518;2022-12-22T16:27:12;10.85;;;3.33;;
39434;SDS011;30098;51.880;-0.518;2022-12-22T16:29:39;7.43;;;3.05;;
39434;SDS011;30098;51.880;-0.518;2022-12-22T16:32:24;11.98;;;3.55;;
39434;SDS011;30098;51.880;-0.518;2022-12-22T16:34:52;13.48;;;3.53;;
39434;SDS011;30098;51.880;-0.518;2022-12-22T16:37:21;12.13;;;3.47;;
39434;SDS011;30098;51.880;-0.518;2022-12-22T16:39:47;10.80;;;3.30;;
39434;SDS011;30098;51.880;-0.518;2022-12-22T16:42:13;8.75;;;2.83;;
39434;SDS011;30098;51.880;-0.518;2022-12-22T16:44:40;14.43;;;3.97;;
39434;SDS011;30098;51.880;-0.518;2022-12-22T16:47:23;12.77;;;3.67;;
39434;SDS011;30098;51.880;-0.518;2022-12-22T16:49:50;12.95;;;3.70;;
39434;SDS011;30098;51.880;-0.518;2022-12-22T16:52:18;11.57;;;3.72;;
39434;SDS011;30098;51.880;-0.518;2022-12-22T16:54:45;11.85;;;3.40;;
39434;SDS011;30098;51.880;-0.518;2022-12-22T16:57:12;12.52;;;4.25;;
39434;SDS011;30098;51.880;-0.518;2022-12-22T16:59:37;13.35;;;3.92;;
39434;SDS011;30098;51.880;-0.518;2022-12-22T17:02:02;9.68;;;3.50;;